sensor_id;sensor_type;location;lat;lon;timestamp;temperature;humidity
5466;DHT22;2755;50.728;7.108;2023-12-20T00:00:57;6.90;99.90
5466;DHT22;2755;50.728;7.108;2023-12-20T00:03:23;7.00;99.90
5466;DHT22;2755;50.728;7.108;2023-12-20T00:10:41;7.10;99.90
5466;DHT22;2755;50.728;7.108;2023-12-20T00:13:07;7.60;99.90
5466;DHT22;2755;50.728;7.108;2023-12-20T00:15:33;7.00;99.90
5466;DHT22;2755;50.728;7.108;2023-12-20T00:17:59;6.90;99.90
5466;DHT22;2755;50.728;7.108;2023-12-20T00:20:25;7.00;99.90
5466;DHT22;2755;50.728;7.108;2023-12-20T00:22:50;5.90;99.90
5466;DHT22;2755;50.728;7.108;2023-12-20T00:27:42;7.10;99.90
5466;DHT22;2755;50.728;7.108;2023-12-20T00:30:08;7.00;99.90
5466;DHT22;2755;50.728;7.108;2023-12-20T00:32:35;7.10;99.90
5466;DHT22;2755;50.728;7.108;2023-12-20T00:35:01;6.90;99.90
5466;DHT22;2755;50.728;7.108;2023-12-20T00:37:27;7.10;99.90
5466;DHT22;2755;50.728;7.108;2023-12-20T00:39:52;6.90;99.90
5466;DHT22;2755;50.728;7.108;2023-12-20T00:44:44;7.20;99.90
5466;DHT22;2755;50.728;7.108;2023-12-20T00:47:10;7.10;99.90
5466;DHT22;2755;50.728;7.108;2023-12-20T00:49:35;7.20;99.90
5466;DHT22;2755;50.728;7.108;2023-12-20T00:52:01;7.00;99.90
5466;DHT22;2755;50.728;7.108;2023-12-20T00:56:52;7.10;99.90
5466;DHT22;2755;50.728;7.108;2023-12-20T01:06:36;6.80;99.90
5466;DHT22;2755;50.728;7.108;2023-12-20T01:11:28;7.20;99.90
5466;DHT22;2755;50.728;7.108;2023-12-20T01:13:54;6.90;99.90
5466;DHT22;2755;50.728;7.108;2023-12-20T01:16:19;7.50;99.90
5466;DHT22;2755;50.728;7.108;2023-12-20T01:18:45;7.10;99.90
5466;DHT22;2755;50.728;7.108;2023-12-20T01:21:10;6.90;99.90
5466;DHT22;2755;50.728;7.108;2023-12-20T01:23:36;7.00;99.90
5466;DHT22;2755;50.728;7.108;2023-12-20T01:26:01;7.20;99.90
5466;DHT22;2755;50.728;7.108;2023-12-20T01:28:28;6.60;99.90
5466;DHT22;2755;50.728;7.108;2023-12-20T01:30:53;7.50;99.90
5466;DHT22;2755;50.728;7.108;2023-12-20T01:33:19;6.60;99.90
5466;DHT22;2755;50.728;7.108;2023-12-20T01:35:44;7.10;99.90
5466;DHT22;2755;50.728;7.108;2023-12-20T01:38:10;7.50;99.90
5466;DHT22;2755;50.728;7.108;2023-12-20T01:40:36;7.10;99.90
5466;DHT22;2755;50.728;7.108;2023-12-20T01:43:08;6.80;99.90
5466;DHT22;2755;50.728;7.108;2023-12-20T01:45:34;7.40;99.90
5466;DHT22;2755;50.728;7.108;2023-12-20T01:48:00;7.30;99.90
5466;DHT22;2755;50.728;7.108;2023-12-20T01:50:28;6.90;99.90
5466;DHT22;2755;50.728;7.108;2023-12-20T01:52:55;7.00;99.90
5466;DHT22;2755;50.728;7.108;2023-12-20T01:55:26;7.10;99.90
5466;DHT22;2755;50.728;7.108;2023-12-20T01:57:53;7.50;99.90
5466;DHT22;2755;50.728;7.108;2023-12-20T02:00:19;7.30;99.90
5466;DHT22;2755;50.728;7.108;2023-12-20T02:02:50;7.40;99.90
5466;DHT22;2755;50.728;7.108;2023-12-20T02:05:18;7.20;99.90
5466;DHT22;2755;50.728;7.108;2023-12-20T02:07:43;7.00;99.90
5466;DHT22;2755;50.728;7.108;2023-12-20T02:10:09;7.20;99.90
5466;DHT22;2755;50.728;7.108;2023-12-20T02:12:34;7.20;99.90
5466;DHT22;2755;50.728;7.108;2023-12-20T02:17:27;7.00;99.90
5466;DHT22;2755;50.728;7.108;2023-12-20T02:22:19;6.70;99.90
5466;DHT22;2755;50.728;7.108;2023-12-20T02:24:44;6.50;99.90
5466;DHT22;2755;50.728;7.108;2023-12-20T02:27:10;6.60;99.90
5466;DHT22;2755;50.728;7.108;2023-12-20T02:29:36;7.00;99.90
5466;DHT22;2755;50.728;7.108;2023-12-20T02:32:02;7.00;99.90
5466;DHT22;2755;50.728;7.108;2023-12-20T02:34:28;6.60;99.90
5466;DHT22;2755;50.728;7.108;2023-12-20T02:36:54;6.30;99.90
5466;DHT22;2755;50.728;7.108;2023-12-20T02:39:20;6.80;99.90
5466;DHT22;2755;50.728;7.108;2023-12-20T02:41:46;6.00;99.90
5466;DHT22;2755;50.728;7.108;2023-12-20T02:44:12;6.30;99.90
5466;DHT22;2755;50.728;7.108;2023-12-20T02:46:37;5.30;99.90
5466;DHT22;2755;50.728;7.108;2023-12-20T02:49:03;5.60;99.90
5466;DHT22;2755;50.728;7.108;2023-12-20T02:51:28;6.00;99.90
5466;DHT22;2755;50.728;7.108;2023-12-20T02:53:54;5.40;99.90
5466;DHT22;2755;50.728;7.108;2023-12-20T02:56:19;6.10;99.90
5466;DHT22;2755;50.728;7.108;2023-12-20T02:58:45;5.50;99.90
5466;DHT22;2755;50.728;7.108;2023-12-20T03:01:10;5.60;99.90
5466;DHT22;2755;50.728;7.108;2023-12-20T03:03:36;5.50;99.90
5466;DHT22;2755;50.728;7.108;2023-12-20T03:06:02;4.80;99.90
5466;DHT22;2755;50.728;7.108;2023-12-20T03:08:27;5.20;99.90
5466;DHT22;2755;50.728;7.108;2023-12-20T03:10:53;5.00;99.90
5466;DHT22;2755;50.728;7.108;2023-12-20T03:13:19;5.00;99.90
5466;DHT22;2755;50.728;7.108;2023-12-20T03:15:45;4.80;99.90
5466;DHT22;2755;50.728;7.108;2023-12-20T03:18:10;5.20;99.90
5466;DHT22;2755;50.728;7.108;2023-12-20T03:23:02;5.80;99.90
5466;DHT22;2755;50.728;7.108;2023-12-20T03:25:28;5.40;99.90
5466;DHT22;2755;50.728;7.108;2023-12-20T03:27:54;5.50;99.90
5466;DHT22;2755;50.728;7.108;2023-12-20T03:30:19;5.50;99.90
5466;DHT22;2755;50.728;7.108;2023-12-20T03:32:46;4.60;99.90
5466;DHT22;2755;50.728;7.108;2023-12-20T03:35:11;6.30;99.90
5466;DHT22;2755;50.728;7.108;2023-12-20T03:37:37;5.50;99.90
5466;DHT22;2755;50.728;7.108;2023-12-20T03:40:03;5.40;99.90
5466;DHT22;2755;50.728;7.108;2023-12-20T03:42:28;5.50;99.90
5466;DHT22;2755;50.728;7.108;2023-12-20T03:44:54;5.30;99.90
5466;DHT22;2755;50.728;7.108;2023-12-20T03:47:20;5.30;99.90
5466;DHT22;2755;50.728;7.108;2023-12-20T03:49:45;6.00;99.90
5466;DHT22;2755;50.728;7.108;2023-12-20T03:52:11;6.30;99.90
5466;DHT22;2755;50.728;7.108;2023-12-20T03:54:37;5.50;99.90
5466;DHT22;2755;50.728;7.108;2023-12-20T03:57:03;5.40;99.90
5466;DHT22;2755;50.728;7.108;2023-12-20T03:59:28;5.50;99.90
5466;DHT22;2755;50.728;7.108;2023-12-20T04:04:20;5.30;99.90
5466;DHT22;2755;50.728;7.108;2023-12-20T04:06:45;5.10;99.90
5466;DHT22;2755;50.728;7.108;2023-12-20T04:09:11;5.60;99.90
5466;DHT22;2755;50.728;7.108;2023-12-20T04:11:37;5.40;99.90
5466;DHT22;2755;50.728;7.108;2023-12-20T04:14:03;5.50;99.90
5466;DHT22;2755;50.728;7.108;2023-12-20T04:16:30;5.60;99.90
5466;DHT22;2755;50.728;7.108;2023-12-20T04:18:55;5.60;99.90
5466;DHT22;2755;50.728;7.108;2023-12-20T04:21:21;5.40;99.90
5466;DHT22;2755;50.728;7.108;2023-12-20T04:23:47;5.10;99.90
5466;DHT22;2755;50.728;7.108;2023-12-20T04:26:12;5.40;99.90
5466;DHT22;2755;50.728;7.108;2023-12-20T04:28:38;5.80;99.90
5466;DHT22;2755;50.728;7.108;2023-12-20T04:31:03;6.10;99.90
5466;DHT22;2755;50.728;7.108;2023-12-20T04:33:29;5.90;99.90
5466;DHT22;2755;50.728;7.108;2023-12-20T04:35:55;5.60;99.90
5466;DHT22;2755;50.728;7.108;2023-12-20T04:40:46;5.50;99.90
5466;DHT22;2755;50.728;7.108;2023-12-20T04:43:13;5.60;99.90
5466;DHT22;2755;50.728;7.108;2023-12-20T04:45:39;5.50;99.90
5466;DHT22;2755;50.728;7.108;2023-12-20T04:48:05;5.40;99.20
5466;DHT22;2755;50.728;7.108;2023-12-20T04:52:56;5.50;99.50
5466;DHT22;2755;50.728;7.108;2023-12-20T04:55:22;6.20;99.50
5466;DHT22;2755;50.728;7.108;2023-12-20T04:57:47;5.80;98.80
5466;DHT22;2755;50.728;7.108;2023-12-20T05:00:13;5.70;98.80
5466;DHT22;2755;50.728;7.108;2023-12-20T05:02:40;5.50;99.90
5466;DHT22;2755;50.728;7.108;2023-12-20T05:05:06;6.30;98.40
5466;DHT22;2755;50.728;7.108;2023-12-20T05:07:32;5.50;97.30
5466;DHT22;2755;50.728;7.108;2023-12-20T05:09:58;5.80;94.80
5466;DHT22;2755;50.728;7.108;2023-12-20T05:12:24;5.50;91.60
5466;DHT22;2755;50.728;7.108;2023-12-20T05:14:51;5.50;90.00
5466;DHT22;2755;50.728;7.108;2023-12-20T05:17:17;5.40;90.10
5466;DHT22;2755;50.728;7.108;2023-12-20T05:19:42;5.40;90.30
5466;DHT22;2755;50.728;7.108;2023-12-20T05:24:34;5.20;91.40
5466;DHT22;2755;50.728;7.108;2023-12-20T05:26:59;4.90;91.20
5466;DHT22;2755;50.728;7.108;2023-12-20T05:29:25;4.70;87.00
5466;DHT22;2755;50.728;7.108;2023-12-20T05:31:51;5.10;86.10
5466;DHT22;2755;50.728;7.108;2023-12-20T05:34:16;4.70;85.60
5466;DHT22;2755;50.728;7.108;2023-12-20T05:36:42;5.00;87.00
5466;DHT22;2755;50.728;7.108;2023-12-20T05:39:07;5.30;88.80
5466;DHT22;2755;50.728;7.108;2023-12-20T05:41:33;5.10;90.70
5466;DHT22;2755;50.728;7.108;2023-12-20T05:43:59;4.80;91.10
5466;DHT22;2755;50.728;7.108;2023-12-20T05:46:25;4.90;93.40
5466;DHT22;2755;50.728;7.108;2023-12-20T05:48:51;5.00;93.10
5466;DHT22;2755;50.728;7.108;2023-12-20T05:53:43;5.50;93.30
5466;DHT22;2755;50.728;7.108;2023-12-20T05:56:09;5.10;92.50
5466;DHT22;2755;50.728;7.108;2023-12-20T05:58:35;5.20;93.90
5466;DHT22;2755;50.728;7.108;2023-12-20T06:05:53;5.10;95.70
5466;DHT22;2755;50.728;7.108;2023-12-20T06:08:18;4.90;95.20
5466;DHT22;2755;50.728;7.108;2023-12-20T06:18:05;4.60;91.80
5466;DHT22;2755;50.728;7.108;2023-12-20T06:20:31;5.40;93.40
5466;DHT22;2755;50.728;7.108;2023-12-20T06:25:22;4.70;95.60
5466;DHT22;2755;50.728;7.108;2023-12-20T06:35:08;5.60;92.90
5466;DHT22;2755;50.728;7.108;2023-12-20T06:37:34;5.40;94.70
5466;DHT22;2755;50.728;7.108;2023-12-20T06:42:25;5.20;94.50
5466;DHT22;2755;50.728;7.108;2023-12-20T06:44:51;4.80;93.90
5466;DHT22;2755;50.728;7.108;2023-12-20T06:49:42;5.30;91.70
5466;DHT22;2755;50.728;7.108;2023-12-20T06:52:08;4.90;91.70
5466;DHT22;2755;50.728;7.108;2023-12-20T06:57:00;5.40;90.30
5466;DHT22;2755;50.728;7.108;2023-12-20T06:59:26;5.50;90.10
5466;DHT22;2755;50.728;7.108;2023-12-20T07:06:46;5.60;83.00
5466;DHT22;2755;50.728;7.108;2023-12-20T07:11:38;5.70;73.60
5466;DHT22;2755;50.728;7.108;2023-12-20T07:14:04;5.50;71.40
5466;DHT22;2755;50.728;7.108;2023-12-20T07:16:29;5.90;72.20
5466;DHT22;2755;50.728;7.108;2023-12-20T07:21:22;5.30;70.00
5466;DHT22;2755;50.728;7.108;2023-12-20T07:26:14;6.00;62.90
5466;DHT22;2755;50.728;7.108;2023-12-20T07:28:40;5.90;57.20
5466;DHT22;2755;50.728;7.108;2023-12-20T07:31:06;5.60;53.50
5466;DHT22;2755;50.728;7.108;2023-12-20T07:33:31;5.50;56.50
5466;DHT22;2755;50.728;7.108;2023-12-20T07:38:24;5.80;54.20
5466;DHT22;2755;50.728;7.108;2023-12-20T07:40:49;5.80;53.40
5466;DHT22;2755;50.728;7.108;2023-12-20T07:43:15;5.20;52.80
5466;DHT22;2755;50.728;7.108;2023-12-20T07:48:07;5.90;45.00
5466;DHT22;2755;50.728;7.108;2023-12-20T07:52:58;6.00;41.80
5466;DHT22;2755;50.728;7.108;2023-12-20T07:55:26;6.00;44.70
5466;DHT22;2755;50.728;7.108;2023-12-20T07:57:52;5.70;45.30
5466;DHT22;2755;50.728;7.108;2023-12-20T08:00:18;6.20;38.00
5466;DHT22;2755;50.728;7.108;2023-12-20T08:02:43;6.30;41.40
5466;DHT22;2755;50.728;7.108;2023-12-20T08:05:09;5.50;38.60
5466;DHT22;2755;50.728;7.108;2023-12-20T08:17:19;6.30;39.10
5466;DHT22;2755;50.728;7.108;2023-12-20T08:19:45;6.20;31.40
5466;DHT22;2755;50.728;7.108;2023-12-20T08:22:11;6.20;30.50
5466;DHT22;2755;50.728;7.108;2023-12-20T08:24:37;6.50;29.00
5466;DHT22;2755;50.728;7.108;2023-12-20T08:27:03;6.50;28.60
5466;DHT22;2755;50.728;7.108;2023-12-20T08:31:55;6.50;29.60
5466;DHT22;2755;50.728;7.108;2023-12-20T08:34:21;6.30;28.50
5466;DHT22;2755;50.728;7.108;2023-12-20T08:39:12;6.50;22.60
5466;DHT22;2755;50.728;7.108;2023-12-20T08:41:38;6.70;25.60
5466;DHT22;2755;50.728;7.108;2023-12-20T08:44:04;6.50;24.70
5466;DHT22;2755;50.728;7.108;2023-12-20T08:46:30;6.90;21.00
5466;DHT22;2755;50.728;7.108;2023-12-20T08:51:22;6.70;22.70
5466;DHT22;2755;50.728;7.108;2023-12-20T08:53:49;6.70;20.40
5466;DHT22;2755;50.728;7.108;2023-12-20T08:56:15;6.60;21.60
5466;DHT22;2755;50.728;7.108;2023-12-20T08:58:40;6.90;21.00
5466;DHT22;2755;50.728;7.108;2023-12-20T09:01:06;6.20;20.10
5466;DHT22;2755;50.728;7.108;2023-12-20T09:05:58;7.30;15.80
5466;DHT22;2755;50.728;7.108;2023-12-20T09:08:24;8.00;8.60
5466;DHT22;2755;50.728;7.108;2023-12-20T09:10:50;8.40;13.10
5466;DHT22;2755;50.728;7.108;2023-12-20T09:13:15;7.60;2.70
5466;DHT22;2755;50.728;7.108;2023-12-20T09:18:07;7.60;6.30
5466;DHT22;2755;50.728;7.108;2023-12-20T09:20:33;7.50;2.00
5466;DHT22;2755;50.728;7.108;2023-12-20T09:25:25;7.50;4.70
5466;DHT22;2755;50.728;7.108;2023-12-20T09:27:51;7.50;5.10
5466;DHT22;2755;50.728;7.108;2023-12-20T09:30:18;7.80;5.00
5466;DHT22;2755;50.728;7.108;2023-12-20T09:32:43;7.40;6.20
5466;DHT22;2755;50.728;7.108;2023-12-20T09:37:35;7.30;7.40
5466;DHT22;2755;50.728;7.108;2023-12-20T09:42:44;7.40;3.30
5466;DHT22;2755;50.728;7.108;2023-12-20T09:45:15;7.30;2.20
5466;DHT22;2755;50.728;7.108;2023-12-20T09:47:43;7.30;3.20
5466;DHT22;2755;50.728;7.108;2023-12-20T09:52:36;7.30;4.50
5466;DHT22;2755;50.728;7.108;2023-12-20T09:55:04;6.90;4.40
5466;DHT22;2755;50.728;7.108;2023-12-20T10:02:25;7.20;2.60
5466;DHT22;2755;50.728;7.108;2023-12-20T10:07:18;7.20;6.30
5466;DHT22;2755;50.728;7.108;2023-12-20T10:14:37;7.20;6.50
5466;DHT22;2755;50.728;7.108;2023-12-20T10:17:05;7.80;3.60
5466;DHT22;2755;50.728;7.108;2023-12-20T10:22:00;7.40;3.10
5466;DHT22;2755;50.728;7.108;2023-12-20T10:24:30;7.10;6.80
5466;DHT22;2755;50.728;7.108;2023-12-20T10:27:06;7.40;2.20
5466;DHT22;2755;50.728;7.108;2023-12-20T10:29:33;7.40;2.10
5466;DHT22;2755;50.728;7.108;2023-12-20T10:41:46;7.40;1.90
5466;DHT22;2755;50.728;7.108;2023-12-20T10:46:39;7.70;1.00
5466;DHT22;2755;50.728;7.108;2023-12-20T10:49:07;7.60;1.20
5466;DHT22;2755;50.728;7.108;2023-12-20T10:51:34;7.80;1.80
5466;DHT22;2755;50.728;7.108;2023-12-20T10:54:00;7.00;1.00
5466;DHT22;2755;50.728;7.108;2023-12-20T10:56:31;7.70;1.00
5466;DHT22;2755;50.728;7.108;2023-12-20T10:58:59;7.90;1.00
5466;DHT22;2755;50.728;7.108;2023-12-20T11:01:29;7.70;1.00
5466;DHT22;2755;50.728;7.108;2023-12-20T11:06:46;7.90;3.70
5466;DHT22;2755;50.728;7.108;2023-12-20T11:09:28;7.80;1.00
5466;DHT22;2755;50.728;7.108;2023-12-20T11:14:27;8.10;3.80
5466;DHT22;2755;50.728;7.108;2023-12-20T11:17:08;8.50;5.30
5466;DHT22;2755;50.728;7.108;2023-12-20T11:22:26;7.60;1.00
5466;DHT22;2755;50.728;7.108;2023-12-20T11:24:53;7.80;1.00
5466;DHT22;2755;50.728;7.108;2023-12-20T11:29:56;7.90;1.00
5466;DHT22;2755;50.728;7.108;2023-12-20T11:34:57;8.00;3.10
5466;DHT22;2755;50.728;7.108;2023-12-20T11:37:33;7.80;1.00
5466;DHT22;2755;50.728;7.108;2023-12-20T11:40:05;7.80;1.00
5466;DHT22;2755;50.728;7.108;2023-12-20T11:42:48;7.80;1.00
5466;DHT22;2755;50.728;7.108;2023-12-20T11:45:16;7.80;1.00
5466;DHT22;2755;50.728;7.108;2023-12-20T11:47:46;7.70;1.00
5466;DHT22;2755;50.728;7.108;2023-12-20T11:50:12;7.40;1.00
5466;DHT22;2755;50.728;7.108;2023-12-20T11:52:38;7.80;3.80
5466;DHT22;2755;50.728;7.108;2023-12-20T11:57:31;7.80;1.00
5466;DHT22;2755;50.728;7.108;2023-12-20T12:02:23;7.70;1.00
5466;DHT22;2755;50.728;7.108;2023-12-20T12:04:49;7.50;3.50
5466;DHT22;2755;50.728;7.108;2023-12-20T12:12:11;8.10;1.00
5466;DHT22;2755;50.728;7.108;2023-12-20T12:14:38;8.30;1.00
5466;DHT22;2755;50.728;7.108;2023-12-20T12:22:08;8.60;1.00
5466;DHT22;2755;50.728;7.108;2023-12-20T12:31:59;8.30;1.00
5466;DHT22;2755;50.728;7.108;2023-12-20T12:34:27;8.50;1.00
5466;DHT22;2755;50.728;7.108;2023-12-20T13:06:07;8.30;1.00
5466;DHT22;2755;50.728;7.108;2023-12-20T13:08:34;8.00;1.00
5466;DHT22;2755;50.728;7.108;2023-12-20T13:13:30;8.10;2.70
5466;DHT22;2755;50.728;7.108;2023-12-20T13:15:55;7.90;2.20
5466;DHT22;2755;50.728;7.108;2023-12-20T13:18:22;7.80;1.10
5466;DHT22;2755;50.728;7.108;2023-12-20T13:25:41;7.80;1.90
5466;DHT22;2755;50.728;7.108;2023-12-20T13:28:07;8.00;5.90
5466;DHT22;2755;50.728;7.108;2023-12-20T13:30:33;7.50;4.30
5466;DHT22;2755;50.728;7.108;2023-12-20T13:32:59;7.80;8.10
5466;DHT22;2755;50.728;7.108;2023-12-20T13:35:25;8.20;10.10
5466;DHT22;2755;50.728;7.108;2023-12-20T13:40:17;7.60;14.60
5466;DHT22;2755;50.728;7.108;2023-12-20T13:42:43;6.90;14.30
5466;DHT22;2755;50.728;7.108;2023-12-20T13:47:35;7.50;17.80
5466;DHT22;2755;50.728;7.108;2023-12-20T13:50:03;7.40;16.80
5466;DHT22;2755;50.728;7.108;2023-12-20T13:52:29;7.10;22.30
5466;DHT22;2755;50.728;7.108;2023-12-20T13:54:55;7.10;26.90
5466;DHT22;2755;50.728;7.108;2023-12-20T13:57:20;7.40;25.60
5466;DHT22;2755;50.728;7.108;2023-12-20T13:59:46;7.20;30.60
5466;DHT22;2755;50.728;7.108;2023-12-20T14:02:11;7.70;29.90
5466;DHT22;2755;50.728;7.108;2023-12-20T14:04:37;7.20;30.90
5466;DHT22;2755;50.728;7.108;2023-12-20T14:07:04;7.10;35.00
5466;DHT22;2755;50.728;7.108;2023-12-20T14:12:00;7.70;38.00
5466;DHT22;2755;50.728;7.108;2023-12-20T14:14:25;6.60;33.10
5466;DHT22;2755;50.728;7.108;2023-12-20T14:16:51;6.90;34.30
5466;DHT22;2755;50.728;7.108;2023-12-20T14:19:16;7.00;32.50
5466;DHT22;2755;50.728;7.108;2023-12-20T14:24:13;7.30;30.30
5466;DHT22;2755;50.728;7.108;2023-12-20T14:26:40;7.10;29.00
5466;DHT22;2755;50.728;7.108;2023-12-20T14:29:06;7.50;30.90
5466;DHT22;2755;50.728;7.108;2023-12-20T14:31:33;7.30;28.30
5466;DHT22;2755;50.728;7.108;2023-12-20T14:33:58;6.80;28.00
5466;DHT22;2755;50.728;7.108;2023-12-20T14:41:16;7.50;26.60
5466;DHT22;2755;50.728;7.108;2023-12-20T14:43:44;8.00;25.60
5466;DHT22;2755;50.728;7.108;2023-12-20T14:48:36;7.50;25.70
5466;DHT22;2755;50.728;7.108;2023-12-20T14:53:27;7.50;23.70
5466;DHT22;2755;50.728;7.108;2023-12-20T14:55:53;6.50;21.80
5466;DHT22;2755;50.728;7.108;2023-12-20T14:58:19;7.50;23.80
5466;DHT22;2755;50.728;7.108;2023-12-20T15:00:44;6.30;21.00
5466;DHT22;2755;50.728;7.108;2023-12-20T15:03:10;7.30;22.10
5466;DHT22;2755;50.728;7.108;2023-12-20T15:05:36;7.50;23.50
5466;DHT22;2755;50.728;7.108;2023-12-20T15:08:02;7.60;23.50
5466;DHT22;2755;50.728;7.108;2023-12-20T15:10:27;7.50;23.90
5466;DHT22;2755;50.728;7.108;2023-12-20T15:12:53;7.80;22.60
5466;DHT22;2755;50.728;7.108;2023-12-20T15:15:20;7.50;24.00
5466;DHT22;2755;50.728;7.108;2023-12-20T15:17:46;7.90;23.20
5466;DHT22;2755;50.728;7.108;2023-12-20T15:20:11;7.70;22.80
5466;DHT22;2755;50.728;7.108;2023-12-20T15:22:37;7.70;23.70
5466;DHT22;2755;50.728;7.108;2023-12-20T15:25:03;7.60;23.20
5466;DHT22;2755;50.728;7.108;2023-12-20T15:27:31;7.20;24.60
5466;DHT22;2755;50.728;7.108;2023-12-20T15:32:24;7.70;24.70
5466;DHT22;2755;50.728;7.108;2023-12-20T15:37:16;7.10;27.40
5466;DHT22;2755;50.728;7.108;2023-12-20T15:39:42;7.20;28.70
5466;DHT22;2755;50.728;7.108;2023-12-20T15:42:08;7.10;28.90
5466;DHT22;2755;50.728;7.108;2023-12-20T15:46:59;7.30;26.80
5466;DHT22;2755;50.728;7.108;2023-12-20T15:49:25;7.30;29.70
5466;DHT22;2755;50.728;7.108;2023-12-20T15:51:50;6.70;26.70
5466;DHT22;2755;50.728;7.108;2023-12-20T15:54:17;7.20;28.70
5466;DHT22;2755;50.728;7.108;2023-12-20T15:56:42;7.70;26.80
5466;DHT22;2755;50.728;7.108;2023-12-20T15:59:10;7.80;29.20
5466;DHT22;2755;50.728;7.108;2023-12-20T16:01:36;7.30;26.30
5466;DHT22;2755;50.728;7.108;2023-12-20T16:04:02;7.40;26.20
5466;DHT22;2755;50.728;7.108;2023-12-20T16:06:27;7.30;26.30
5466;DHT22;2755;50.728;7.108;2023-12-20T16:08:53;7.10;26.40
5466;DHT22;2755;50.728;7.108;2023-12-20T16:13:45;7.30;25.00
5466;DHT22;2755;50.728;7.108;2023-12-20T16:16:11;7.00;24.10
5466;DHT22;2755;50.728;7.108;2023-12-20T16:21:04;7.90;25.80
5466;DHT22;2755;50.728;7.108;2023-12-20T16:23:30;7.50;26.60
5466;DHT22;2755;50.728;7.108;2023-12-20T16:25:55;8.10;29.30
5466;DHT22;2755;50.728;7.108;2023-12-20T16:30:48;7.30;27.60
5466;DHT22;2755;50.728;7.108;2023-12-20T16:33:13;7.80;27.50
5466;DHT22;2755;50.728;7.108;2023-12-20T16:38:05;7.60;27.80
5466;DHT22;2755;50.728;7.108;2023-12-20T16:40:30;7.20;29.70
5466;DHT22;2755;50.728;7.108;2023-12-20T16:42:56;7.10;29.10
5466;DHT22;2755;50.728;7.108;2023-12-20T16:45:22;8.00;36.80
5466;DHT22;2755;50.728;7.108;2023-12-20T16:47:48;7.40;34.40
5466;DHT22;2755;50.728;7.108;2023-12-20T16:50:14;7.20;34.50
5466;DHT22;2755;50.728;7.108;2023-12-20T16:52:40;7.30;34.00
5466;DHT22;2755;50.728;7.108;2023-12-20T16:55:09;6.80;33.90
5466;DHT22;2755;50.728;7.108;2023-12-20T16:57:35;7.80;35.40
5466;DHT22;2755;50.728;7.108;2023-12-20T17:00:01;7.20;34.20
5466;DHT22;2755;50.728;7.108;2023-12-20T17:02:27;6.60;36.20
5466;DHT22;2755;50.728;7.108;2023-12-20T17:07:18;7.80;36.40
5466;DHT22;2755;50.728;7.108;2023-12-20T17:12:12;7.10;32.70
5466;DHT22;2755;50.728;7.108;2023-12-20T17:17:04;7.80;37.40
5466;DHT22;2755;50.728;7.108;2023-12-20T17:21:58;8.40;33.30
5466;DHT22;2755;50.728;7.108;2023-12-20T17:26:50;7.20;33.40
5466;DHT22;2755;50.728;7.108;2023-12-20T17:29:15;7.40;33.20
5466;DHT22;2755;50.728;7.108;2023-12-20T17:31:41;7.50;33.50
5466;DHT22;2755;50.728;7.108;2023-12-20T17:34:08;7.50;35.90
5466;DHT22;2755;50.728;7.108;2023-12-20T17:41:28;4.70;31.00
5466;DHT22;2755;50.728;7.108;2023-12-20T17:48:46;6.70;34.10
5466;DHT22;2755;50.728;7.108;2023-12-20T17:51:11;7.40;32.10
5466;DHT22;2755;50.728;7.108;2023-12-20T17:56:03;7.60;32.90
5466;DHT22;2755;50.728;7.108;2023-12-20T18:00:54;7.80;29.40
5466;DHT22;2755;50.728;7.108;2023-12-20T18:03:20;7.70;30.70
5466;DHT22;2755;50.728;7.108;2023-12-20T18:05:45;7.40;28.70
5466;DHT22;2755;50.728;7.108;2023-12-20T18:08:11;7.60;27.00
5466;DHT22;2755;50.728;7.108;2023-12-20T18:10:37;7.60;26.70
5466;DHT22;2755;50.728;7.108;2023-12-20T18:13:02;7.70;27.60
5466;DHT22;2755;50.728;7.108;2023-12-20T18:15:29;7.60;24.90
5466;DHT22;2755;50.728;7.108;2023-12-20T18:17:55;8.20;26.90
5466;DHT22;2755;50.728;7.108;2023-12-20T18:20:20;7.70;24.00
5466;DHT22;2755;50.728;7.108;2023-12-20T18:25:12;7.70;24.60
5466;DHT22;2755;50.728;7.108;2023-12-20T18:27:37;7.00;22.10
5466;DHT22;2755;50.728;7.108;2023-12-20T18:30:03;7.70;24.70
5466;DHT22;2755;50.728;7.108;2023-12-20T18:32:32;7.70;22.10
5466;DHT22;2755;50.728;7.108;2023-12-20T18:39:51;7.60;18.80
5466;DHT22;2755;50.728;7.108;2023-12-20T18:42:17;8.00;19.50
5466;DHT22;2755;50.728;7.108;2023-12-20T18:44:42;8.10;19.20
5466;DHT22;2755;50.728;7.108;2023-12-20T18:47:08;8.10;21.00
5466;DHT22;2755;50.728;7.108;2023-12-20T18:49:33;8.30;19.30
5466;DHT22;2755;50.728;7.108;2023-12-20T18:56:51;8.00;18.50
5466;DHT22;2755;50.728;7.108;2023-12-20T18:59:17;7.90;19.70
5466;DHT22;2755;50.728;7.108;2023-12-20T19:01:45;7.30;17.50
5466;DHT22;2755;50.728;7.108;2023-12-20T19:06:37;8.20;17.40
5466;DHT22;2755;50.728;7.108;2023-12-20T19:09:02;8.10;17.30
5466;DHT22;2755;50.728;7.108;2023-12-20T19:13:54;8.20;16.70
5466;DHT22;2755;50.728;7.108;2023-12-20T19:16:20;8.00;17.70
5466;DHT22;2755;50.728;7.108;2023-12-20T19:18:46;8.10;18.30
5466;DHT22;2755;50.728;7.108;2023-12-20T19:23:37;8.00;15.90
5466;DHT22;2755;50.728;7.108;2023-12-20T19:26:09;8.10;14.80
5466;DHT22;2755;50.728;7.108;2023-12-20T19:28:34;8.10;15.00
5466;DHT22;2755;50.728;7.108;2023-12-20T19:31:01;8.50;15.50
5466;DHT22;2755;50.728;7.108;2023-12-20T19:33:35;8.80;15.60
5466;DHT22;2755;50.728;7.108;2023-12-20T19:38:27;8.40;17.40
5466;DHT22;2755;50.728;7.108;2023-12-20T19:40:52;8.20;14.60
5466;DHT22;2755;50.728;7.108;2023-12-20T19:45:45;8.70;14.60
5466;DHT22;2755;50.728;7.108;2023-12-20T19:53:02;8.60;13.80
5466;DHT22;2755;50.728;7.108;2023-12-20T19:55:29;8.30;15.30
5466;DHT22;2755;50.728;7.108;2023-12-20T20:00:24;8.50;12.40
5466;DHT22;2755;50.728;7.108;2023-12-20T20:02:49;7.90;14.10
5466;DHT22;2755;50.728;7.108;2023-12-20T20:05:15;8.40;14.90
5466;DHT22;2755;50.728;7.108;2023-12-20T20:10:07;8.40;14.50
5466;DHT22;2755;50.728;7.108;2023-12-20T20:12:32;8.20;12.60
5466;DHT22;2755;50.728;7.108;2023-12-20T20:14:59;8.40;13.30
5466;DHT22;2755;50.728;7.108;2023-12-20T20:17:25;8.00;13.30
5466;DHT22;2755;50.728;7.108;2023-12-20T20:22:17;8.30;12.80
5466;DHT22;2755;50.728;7.108;2023-12-20T20:24:43;8.40;10.40
5466;DHT22;2755;50.728;7.108;2023-12-20T20:27:09;9.10;13.00
5466;DHT22;2755;50.728;7.108;2023-12-20T20:29:34;8.30;10.80
5466;DHT22;2755;50.728;7.108;2023-12-20T20:32:00;8.40;9.50
5466;DHT22;2755;50.728;7.108;2023-12-20T20:34:25;8.50;10.60
5466;DHT22;2755;50.728;7.108;2023-12-20T20:36:54;8.00;10.60
5466;DHT22;2755;50.728;7.108;2023-12-20T20:39:20;8.20;9.70
5466;DHT22;2755;50.728;7.108;2023-12-20T20:41:45;8.50;8.20
5466;DHT22;2755;50.728;7.108;2023-12-20T20:44:11;8.80;7.80
5466;DHT22;2755;50.728;7.108;2023-12-20T20:49:03;8.60;9.20
5466;DHT22;2755;50.728;7.108;2023-12-20T20:51:29;8.90;9.60
5466;DHT22;2755;50.728;7.108;2023-12-20T20:53:56;8.50;8.50
5466;DHT22;2755;50.728;7.108;2023-12-20T20:56:21;8.70;6.40
5466;DHT22;2755;50.728;7.108;2023-12-20T20:58:47;9.40;9.00
5466;DHT22;2755;50.728;7.108;2023-12-20T21:01:13;8.70;8.40
5466;DHT22;2755;50.728;7.108;2023-12-20T21:03:38;8.80;8.60
5466;DHT22;2755;50.728;7.108;2023-12-20T21:06:04;8.60;9.40
5466;DHT22;2755;50.728;7.108;2023-12-20T21:08:31;9.00;9.30
5466;DHT22;2755;50.728;7.108;2023-12-20T21:10:56;8.60;9.00
5466;DHT22;2755;50.728;7.108;2023-12-20T21:13:25;8.60;7.40
5466;DHT22;2755;50.728;7.108;2023-12-20T21:15:51;8.70;6.00
5466;DHT22;2755;50.728;7.108;2023-12-20T21:18:19;9.20;6.70
5466;DHT22;2755;50.728;7.108;2023-12-20T21:20:44;8.80;7.80
5466;DHT22;2755;50.728;7.108;2023-12-20T21:23:13;9.30;7.00
5466;DHT22;2755;50.728;7.108;2023-12-20T21:25:38;8.90;5.00
5466;DHT22;2755;50.728;7.108;2023-12-20T21:28:04;9.00;7.20
5466;DHT22;2755;50.728;7.108;2023-12-20T21:30:30;9.10;5.40
5466;DHT22;2755;50.728;7.108;2023-12-20T21:32:59;8.60;4.80
5466;DHT22;2755;50.728;7.108;2023-12-20T21:35:25;9.00;5.70
5466;DHT22;2755;50.728;7.108;2023-12-20T21:40:17;9.20;8.90